sensor_id;sensor_type;location;lat;lon;timestamp;temperature;humidity
67354;SHT30;54238;52.278;21.056;2024-02-16T00:00:51;9.16;67.41
67354;SHT30;54238;52.278;21.056;2024-02-16T00:03:41;9.16;67.43
67354;SHT30;54238;52.278;21.056;2024-02-16T00:06:27;9.16;67.41
67354;SHT30;54238;52.278;21.056;2024-02-16T00:09:17;9.15;67.46
67354;SHT30;54238;52.278;21.056;2024-02-16T00:12:04;9.14;67.47
67354;SHT30;54238;52.278;21.056;2024-02-16T00:14:53;9.14;67.50
67354;SHT30;54238;52.278;21.056;2024-02-16T00:17:42;9.14;67.46
67354;SHT30;54238;52.278;21.056;2024-02-16T00:20:29;9.15;67.48
67354;SHT30;54238;52.278;21.056;2024-02-16T00:23:18;9.15;67.43
67354;SHT30;54238;52.278;21.056;2024-02-16T00:26:11;9.15;67.40
67354;SHT30;54238;52.278;21.056;2024-02-16T00:28:57;9.14;67.39
67354;SHT30;54238;52.278;21.056;2024-02-16T00:31:44;9.13;67.40
67354;SHT30;54238;52.278;21.056;2024-02-16T00:34:31;9.14;67.38
67354;SHT30;54238;52.278;21.056;2024-02-16T00:37:23;9.12;67.37
67354;SHT30;54238;52.278;21.056;2024-02-16T00:40:11;9.11;67.40
67354;SHT30;54238;52.278;21.056;2024-02-16T00:43:01;9.08;67.40
67354;SHT30;54238;52.278;21.056;2024-02-16T00:45:48;9.09;67.40
67354;SHT30;54238;52.278;21.056;2024-02-16T00:48:37;9.07;67.40
67354;SHT30;54238;52.278;21.056;2024-02-16T00:51:26;9.06;67.39
67354;SHT30;54238;52.278;21.056;2024-02-16T00:54:16;9.07;67.39
67354;SHT30;54238;52.278;21.056;2024-02-16T00:57:06;9.07;67.32
67354;SHT30;54238;52.278;21.056;2024-02-16T00:59:52;9.05;67.35
67354;SHT30;54238;52.278;21.056;2024-02-16T01:02:43;9.04;67.32
67354;SHT30;54238;52.278;21.056;2024-02-16T01:05:30;9.02;67.32
67354;SHT30;54238;52.278;21.056;2024-02-16T01:08:19;9.00;67.31
67354;SHT30;54238;52.278;21.056;2024-02-16T01:11:12;8.98;67.30
67354;SHT30;54238;52.278;21.056;2024-02-16T01:13:59;8.94;67.37
67354;SHT30;54238;52.278;21.056;2024-02-16T01:16:46;8.91;67.40
67354;SHT30;54238;52.278;21.056;2024-02-16T01:19:35;8.86;67.40
67354;SHT30;54238;52.278;21.056;2024-02-16T01:22:24;8.81;67.49
67354;SHT30;54238;52.278;21.056;2024-02-16T01:25:13;8.78;67.52
67354;SHT30;54238;52.278;21.056;2024-02-16T01:28:00;8.75;67.56
67354;SHT30;54238;52.278;21.056;2024-02-16T01:30:49;8.69;67.63
67354;SHT30;54238;52.278;21.056;2024-02-16T01:33:37;8.66;67.70
67354;SHT30;54238;52.278;21.056;2024-02-16T01:36:24;8.63;67.72
67354;SHT30;54238;52.278;21.056;2024-02-16T01:39:13;8.62;67.79
67354;SHT30;54238;52.278;21.056;2024-02-16T01:42:00;8.58;67.83
67354;SHT30;54238;52.278;21.056;2024-02-16T01:44:48;8.55;67.90
67354;SHT30;54238;52.278;21.056;2024-02-16T01:47:36;8.51;67.92
67354;SHT30;54238;52.278;21.056;2024-02-16T01:50:28;8.50;67.99
67354;SHT30;54238;52.278;21.056;2024-02-16T01:53:16;8.47;68.04
67354;SHT30;54238;52.278;21.056;2024-02-16T01:56:06;8.42;68.09
67354;SHT30;54238;52.278;21.056;2024-02-16T01:58:57;8.40;68.12
67354;SHT30;54238;52.278;21.056;2024-02-16T02:01:47;8.37;68.21
67354;SHT30;54238;52.278;21.056;2024-02-16T02:04:36;8.35;68.22
67354;SHT30;54238;52.278;21.056;2024-02-16T02:07:26;8.33;68.23
67354;SHT30;54238;52.278;21.056;2024-02-16T02:10:14;8.31;68.24
67354;SHT30;54238;52.278;21.056;2024-02-16T02:13:01;8.29;68.29
67354;SHT30;54238;52.278;21.056;2024-02-16T02:15:48;8.28;68.29
67354;SHT30;54238;52.278;21.056;2024-02-16T02:18:44;8.27;68.30
67354;SHT30;54238;52.278;21.056;2024-02-16T02:21:31;8.23;68.30
67354;SHT30;54238;52.278;21.056;2024-02-16T02:24:21;8.22;68.32
67354;SHT30;54238;52.278;21.056;2024-02-16T02:27:08;8.20;68.39
67354;SHT30;54238;52.278;21.056;2024-02-16T02:29:57;8.19;68.40
67354;SHT30;54238;52.278;21.056;2024-02-16T02:32:47;8.17;68.41
67354;SHT30;54238;52.278;21.056;2024-02-16T02:35:36;8.15;68.40
67354;SHT30;54238;52.278;21.056;2024-02-16T02:38:23;8.14;68.41
67354;SHT30;54238;52.278;21.056;2024-02-16T02:41:10;8.12;68.40
67354;SHT30;54238;52.278;21.056;2024-02-16T02:44:02;8.09;68.40
67354;SHT30;54238;52.278;21.056;2024-02-16T02:46:49;8.06;68.41
67354;SHT30;54238;52.278;21.056;2024-02-16T02:49:38;8.03;68.48
67354;SHT30;54238;52.278;21.056;2024-02-16T02:52:25;8.02;68.50
67354;SHT30;54238;52.278;21.056;2024-02-16T02:55:19;7.99;68.53
67354;SHT30;54238;52.278;21.056;2024-02-16T02:58:08;7.95;68.57
67354;SHT30;54238;52.278;21.056;2024-02-16T03:01:00;7.94;68.57
67354;SHT30;54238;52.278;21.056;2024-02-16T03:03:47;7.92;68.56
67354;SHT30;54238;52.278;21.056;2024-02-16T03:06:37;7.91;68.55
67354;SHT30;54238;52.278;21.056;2024-02-16T03:09:26;7.89;68.59
67354;SHT30;54238;52.278;21.056;2024-02-16T03:12:15;7.88;68.51
67354;SHT30;54238;52.278;21.056;2024-02-16T03:15:02;7.88;68.50
67354;SHT30;54238;52.278;21.056;2024-02-16T03:17:50;7.86;68.50
67354;SHT30;54238;52.278;21.056;2024-02-16T03:20:37;7.83;68.50
67354;SHT30;54238;52.278;21.056;2024-02-16T03:23:23;7.82;68.50
67354;SHT30;54238;52.278;21.056;2024-02-16T03:26:14;7.81;68.44
67354;SHT30;54238;52.278;21.056;2024-02-16T03:29:08;7.80;68.40
67354;SHT30;54238;52.278;21.056;2024-02-16T03:31:58;7.77;68.36
67354;SHT30;54238;52.278;21.056;2024-02-16T03:34:47;7.74;68.30
67354;SHT30;54238;52.278;21.056;2024-02-16T03:37:36;7.72;68.27
67354;SHT30;54238;52.278;21.056;2024-02-16T03:40:23;7.69;68.21
67354;SHT30;54238;52.278;21.056;2024-02-16T03:43:16;7.67;68.20
67354;SHT30;54238;52.278;21.056;2024-02-16T03:46:03;7.63;68.16
67354;SHT30;54238;52.278;21.056;2024-02-16T03:48:57;7.61;68.11
67354;SHT30;54238;52.278;21.056;2024-02-16T03:51:44;7.60;68.07
67354;SHT30;54238;52.278;21.056;2024-02-16T03:54:36;7.60;67.98
67354;SHT30;54238;52.278;21.056;2024-02-16T03:57:22;7.58;67.90
67354;SHT30;54238;52.278;21.056;2024-02-16T04:00:16;7.57;67.83
67354;SHT30;54238;52.278;21.056;2024-02-16T04:03:04;7.56;67.79
67354;SHT30;54238;52.278;21.056;2024-02-16T04:05:54;7.54;67.70
67354;SHT30;54238;52.278;21.056;2024-02-16T04:08:40;7.54;67.67
67354;SHT30;54238;52.278;21.056;2024-02-16T04:11:27;7.52;67.60
67354;SHT30;54238;52.278;21.056;2024-02-16T04:14:15;7.51;67.55
67354;SHT30;54238;52.278;21.056;2024-02-16T04:17:05;7.49;67.50
67354;SHT30;54238;52.278;21.056;2024-02-16T04:19:54;7.48;67.44
67354;SHT30;54238;52.278;21.056;2024-02-16T04:22:43;7.46;67.41
67354;SHT30;54238;52.278;21.056;2024-02-16T04:25:30;7.44;67.40
67354;SHT30;54238;52.278;21.056;2024-02-16T04:28:19;7.42;67.33
67354;SHT30;54238;52.278;21.056;2024-02-16T04:31:06;7.39;67.31
67354;SHT30;54238;52.278;21.056;2024-02-16T04:33:55;7.36;67.36
67354;SHT30;54238;52.278;21.056;2024-02-16T04:36:42;7.33;67.40
67354;SHT30;54238;52.278;21.056;2024-02-16T04:39:30;7.29;67.40
67354;SHT30;54238;52.278;21.056;2024-02-16T04:42:17;7.28;67.42
67354;SHT30;54238;52.278;21.056;2024-02-16T04:45:04;7.25;67.49
67354;SHT30;54238;52.278;21.056;2024-02-16T04:47:56;7.22;67.47
67354;SHT30;54238;52.278;21.056;2024-02-16T04:50:43;7.21;67.44
67354;SHT30;54238;52.278;21.056;2024-02-16T04:53:35;7.19;67.50
67354;SHT30;54238;52.278;21.056;2024-02-16T04:56:24;7.18;67.43
67354;SHT30;54238;52.278;21.056;2024-02-16T04:59:11;7.17;67.42
67354;SHT30;54238;52.278;21.056;2024-02-16T05:02:03;7.16;67.40
67354;SHT30;54238;52.278;21.056;2024-02-16T05:04:50;7.14;67.40
67354;SHT30;54238;52.278;21.056;2024-02-16T05:07:39;7.12;67.33
67354;SHT30;54238;52.278;21.056;2024-02-16T05:10:28;7.09;67.30
67354;SHT30;54238;52.278;21.056;2024-02-16T05:13:17;7.07;67.34
67354;SHT30;54238;52.278;21.056;2024-02-16T05:16:07;7.05;67.39
67354;SHT30;54238;52.278;21.056;2024-02-16T05:19:00;7.03;67.40
67354;SHT30;54238;52.278;21.056;2024-02-16T05:21:52;7.02;67.41
67354;SHT30;54238;52.278;21.056;2024-02-16T05:24:42;7.00;67.45
67354;SHT30;54238;52.278;21.056;2024-02-16T05:27:38;6.97;67.47
67354;SHT30;54238;52.278;21.056;2024-02-16T05:30:26;6.94;67.52
67354;SHT30;54238;52.278;21.056;2024-02-16T05:33:12;6.90;67.60
67354;SHT30;54238;52.278;21.056;2024-02-16T05:35:59;6.88;67.63
67354;SHT30;54238;52.278;21.056;2024-02-16T05:38:50;6.87;67.65
67354;SHT30;54238;52.278;21.056;2024-02-16T05:41:41;6.86;67.64
67354;SHT30;54238;52.278;21.056;2024-02-16T05:44:32;6.84;67.63
67354;SHT30;54238;52.278;21.056;2024-02-16T05:47:19;6.82;67.62
67354;SHT30;54238;52.278;21.056;2024-02-16T05:50:06;6.80;67.64
67354;SHT30;54238;52.278;21.056;2024-02-16T05:52:58;6.79;67.65
67354;SHT30;54238;52.278;21.056;2024-02-16T05:55:48;6.78;67.60
67354;SHT30;54238;52.278;21.056;2024-02-16T05:58:36;6.77;67.60
67354;SHT30;54238;52.278;21.056;2024-02-16T06:01:22;6.78;67.55
67354;SHT30;54238;52.278;21.056;2024-02-16T06:04:15;6.79;67.50
67354;SHT30;54238;52.278;21.056;2024-02-16T06:07:07;6.79;67.42
67354;SHT30;54238;52.278;21.056;2024-02-16T06:09:55;6.78;67.40
67354;SHT30;54238;52.278;21.056;2024-02-16T06:12:42;6.79;67.40
67354;SHT30;54238;52.278;21.056;2024-02-16T06:15:32;6.80;67.40
67354;SHT30;54238;52.278;21.056;2024-02-16T06:18:21;6.80;67.40
67354;SHT30;54238;52.278;21.056;2024-02-16T06:21:10;6.83;67.29
67354;SHT30;54238;52.278;21.056;2024-02-16T06:23:57;6.84;67.27
67354;SHT30;54238;52.278;21.056;2024-02-16T06:26:46;6.83;67.20
67354;SHT30;54238;52.278;21.056;2024-02-16T06:29:37;6.84;67.20
67354;SHT30;54238;52.278;21.056;2024-02-16T06:32:24;6.84;67.19
67354;SHT30;54238;52.278;21.056;2024-02-16T06:35:17;6.85;67.09
67354;SHT30;54238;52.278;21.056;2024-02-16T06:38:04;6.87;67.09
67354;SHT30;54238;52.278;21.056;2024-02-16T06:40:53;6.91;66.99
67354;SHT30;54238;52.278;21.056;2024-02-16T06:43:40;6.94;66.90
67354;SHT30;54238;52.278;21.056;2024-02-16T06:46:29;6.95;66.81
67354;SHT30;54238;52.278;21.056;2024-02-16T06:49:18;6.98;66.65
67354;SHT30;54238;52.278;21.056;2024-02-16T06:52:12;7.00;66.60
67354;SHT30;54238;52.278;21.056;2024-02-16T06:55:02;7.04;66.56
67354;SHT30;54238;52.278;21.056;2024-02-16T06:57:49;7.07;66.43
67354;SHT30;54238;52.278;21.056;2024-02-16T07:00:38;7.12;66.27
67354;SHT30;54238;52.278;21.056;2024-02-16T07:03:31;7.14;66.14
67354;SHT30;54238;52.278;21.056;2024-02-16T07:06:20;7.17;66.05
67354;SHT30;54238;52.278;21.056;2024-02-16T07:09:07;7.19;66.00
67354;SHT30;54238;52.278;21.056;2024-02-16T07:11:58;7.24;65.90
67354;SHT30;54238;52.278;21.056;2024-02-16T07:14:45;7.28;65.74
67354;SHT30;54238;52.278;21.056;2024-02-16T07:17:36;7.32;65.66
67354;SHT30;54238;52.278;21.056;2024-02-16T07:20:23;7.36;65.55
67354;SHT30;54238;52.278;21.056;2024-02-16T07:23:15;7.38;65.42
67354;SHT30;54238;52.278;21.056;2024-02-16T07:26:01;7.42;65.31
67354;SHT30;54238;52.278;21.056;2024-02-16T07:28:49;7.45;65.22
67354;SHT30;54238;52.278;21.056;2024-02-16T07:31:38;7.51;65.14
67354;SHT30;54238;52.278;21.056;2024-02-16T07:34:29;7.55;64.88
67354;SHT30;54238;52.278;21.056;2024-02-16T07:37:16;7.59;64.67
67354;SHT30;54238;52.278;21.056;2024-02-16T07:40:06;7.62;64.45
67354;SHT30;54238;52.278;21.056;2024-02-16T07:42:55;7.64;64.52
67354;SHT30;54238;52.278;21.056;2024-02-16T07:45:42;7.71;64.49
67354;SHT30;54238;52.278;21.056;2024-02-16T07:48:32;7.79;64.36
67354;SHT30;54238;52.278;21.056;2024-02-16T07:51:19;7.86;64.20
67354;SHT30;54238;52.278;21.056;2024-02-16T07:54:06;7.95;64.10
67354;SHT30;54238;52.278;21.056;2024-02-16T07:56:55;8.05;63.80
67354;SHT30;54238;52.278;21.056;2024-02-16T07:59:42;8.18;63.33
67354;SHT30;54238;52.278;21.056;2024-02-16T08:02:29;8.30;62.91
67354;SHT30;54238;52.278;21.056;2024-02-16T08:05:19;8.45;62.60
67354;SHT30;54238;52.278;21.056;2024-02-16T08:08:06;8.61;62.27
67354;SHT30;54238;52.278;21.056;2024-02-16T08:10:58;8.78;61.79
67354;SHT30;54238;52.278;21.056;2024-02-16T08:13:44;8.91;61.25
67354;SHT30;54238;52.278;21.056;2024-02-16T08:16:34;9.05;60.96
67354;SHT30;54238;52.278;21.056;2024-02-16T08:19:31;9.16;60.69
67354;SHT30;54238;52.278;21.056;2024-02-16T08:22:27;9.32;60.24
67354;SHT30;54238;52.278;21.056;2024-02-16T08:25:14;9.46;59.79
67354;SHT30;54238;52.278;21.056;2024-02-16T08:28:01;9.59;59.58
67354;SHT30;54238;52.278;21.056;2024-02-16T08:30:55;9.76;59.00
67354;SHT30;54238;52.278;21.056;2024-02-16T08:33:42;9.93;58.75
67354;SHT30;54238;52.278;21.056;2024-02-16T08:36:33;10.05;58.16
67354;SHT30;54238;52.278;21.056;2024-02-16T08:39:22;10.16;57.88
67354;SHT30;54238;52.278;21.056;2024-02-16T08:42:14;10.31;57.79
67354;SHT30;54238;52.278;21.056;2024-02-16T08:45:01;10.50;57.08
67354;SHT30;54238;52.278;21.056;2024-02-16T08:47:53;10.71;56.93
67354;SHT30;54238;52.278;21.056;2024-02-16T08:50:44;10.91;56.49
67354;SHT30;54238;52.278;21.056;2024-02-16T08:53:39;11.17;56.19
67354;SHT30;54238;52.278;21.056;2024-02-16T08:56:27;11.47;56.08
67354;SHT30;54238;52.278;21.056;2024-02-16T08:59:14;11.77;54.87
67354;SHT30;54238;52.278;21.056;2024-02-16T09:02:04;12.04;54.47
67354;SHT30;54238;52.278;21.056;2024-02-16T09:04:53;12.32;53.72
67354;SHT30;54238;52.278;21.056;2024-02-16T09:07:42;12.52;52.87
67354;SHT30;54238;52.278;21.056;2024-02-16T09:10:29;12.72;52.66
67354;SHT30;54238;52.278;21.056;2024-02-16T09:13:18;13.03;52.14
67354;SHT30;54238;52.278;21.056;2024-02-16T09:16:07;13.46;51.03
67354;SHT30;54238;52.278;21.056;2024-02-16T09:18:54;14.02;49.93
67354;SHT30;54238;52.278;21.056;2024-02-16T09:21:41;14.58;49.11
67354;SHT30;54238;52.278;21.056;2024-02-16T09:24:28;15.11;47.29
67354;SHT30;54238;52.278;21.056;2024-02-16T09:27:17;15.52;46.55
67354;SHT30;54238;52.278;21.056;2024-02-16T09:30:09;15.96;45.51
67354;SHT30;54238;52.278;21.056;2024-02-16T09:32:57;16.32;44.16
67354;SHT30;54238;52.278;21.056;2024-02-16T09:35:44;16.64;43.56
67354;SHT30;54238;52.278;21.056;2024-02-16T09:38:36;16.76;42.82
67354;SHT30;54238;52.278;21.056;2024-02-16T09:41:25;16.84;42.40
67354;SHT30;54238;52.278;21.056;2024-02-16T09:44:12;16.89;41.27
67354;SHT30;54238;52.278;21.056;2024-02-16T09:46:59;16.95;41.32
67354;SHT30;54238;52.278;21.056;2024-02-16T09:49:49;17.22;41.22
67354;SHT30;54238;52.278;21.056;2024-02-16T09:52:36;17.58;40.60
67354;SHT30;54238;52.278;21.056;2024-02-16T09:55:29;17.90;40.36
67354;SHT30;54238;52.278;21.056;2024-02-16T09:58:21;18.25;39.12
67354;SHT30;54238;52.278;21.056;2024-02-16T10:01:16;18.50;38.31
67354;SHT30;54238;52.278;21.056;2024-02-16T10:04:08;18.68;37.81
67354;SHT30;54238;52.278;21.056;2024-02-16T10:06:58;18.91;37.57
67354;SHT30;54238;52.278;21.056;2024-02-16T10:09:45;19.05;37.41
67354;SHT30;54238;52.278;21.056;2024-02-16T10:12:32;19.42;37.69
67354;SHT30;54238;52.278;21.056;2024-02-16T10:15:19;19.79;36.66
67354;SHT30;54238;52.278;21.056;2024-02-16T10:18:11;20.11;36.13
67354;SHT30;54238;52.278;21.056;2024-02-16T10:20:59;20.42;35.96
67354;SHT30;54238;52.278;21.056;2024-02-16T10:24:23;20.83;34.75
67354;SHT30;54238;52.278;21.056;2024-02-16T10:27:19;21.14;34.79
67354;SHT30;54238;52.278;21.056;2024-02-16T10:30:10;21.55;34.33
67354;SHT30;54238;52.278;21.056;2024-02-16T10:33:02;21.79;33.54
67354;SHT30;54238;52.278;21.056;2024-02-16T10:35:54;22.09;32.56
67354;SHT30;54238;52.278;21.056;2024-02-16T10:38:46;22.01;31.76
67354;SHT30;54238;52.278;21.056;2024-02-16T10:41:36;22.00;32.33
67354;SHT30;54238;52.278;21.056;2024-02-16T10:44:27;22.18;32.02
67354;SHT30;54238;52.278;21.056;2024-02-16T10:47:17;22.43;32.23
67354;SHT30;54238;52.278;21.056;2024-02-16T10:50:04;22.58;31.08
67354;SHT30;54238;52.278;21.056;2024-02-16T10:52:56;22.52;30.75
67354;SHT30;54238;52.278;21.056;2024-02-16T10:55:49;22.64;30.89
67354;SHT30;54238;52.278;21.056;2024-02-16T10:58:41;22.67;30.26
67354;SHT30;54238;52.278;21.056;2024-02-16T11:01:31;22.71;30.57
67354;SHT30;54238;52.278;21.056;2024-02-16T11:04:23;22.91;30.92
67354;SHT30;54238;52.278;21.056;2024-02-16T11:07:14;23.06;30.80
67354;SHT30;54238;52.278;21.056;2024-02-16T11:10:05;23.38;30.43
67354;SHT30;54238;52.278;21.056;2024-02-16T11:13:04;23.59;30.09
67354;SHT30;54238;52.278;21.056;2024-02-16T11:16:01;23.74;30.54
67354;SHT30;54238;52.278;21.056;2024-02-16T11:18:53;23.82;29.88
67354;SHT30;54238;52.278;21.056;2024-02-16T11:21:40;23.95;30.05
67354;SHT30;54238;52.278;21.056;2024-02-16T11:24:48;24.03;29.40
67354;SHT30;54238;52.278;21.056;2024-02-16T11:27:39;24.15;29.52
67354;SHT30;54238;52.278;21.056;2024-02-16T11:30:26;24.41;29.28
67354;SHT30;54238;52.278;21.056;2024-02-16T11:33:13;24.79;29.06
67354;SHT30;54238;52.278;21.056;2024-02-16T11:36:04;25.20;29.08
67354;SHT30;54238;52.278;21.056;2024-02-16T11:38:54;25.87;29.14
67354;SHT30;54238;52.278;21.056;2024-02-16T11:41:41;26.23;27.70
67354;SHT30;54238;52.278;21.056;2024-02-16T11:44:31;26.45;27.47
67354;SHT30;54238;52.278;21.056;2024-02-16T11:47:26;26.83;27.17
67354;SHT30;54238;52.278;21.056;2024-02-16T11:50:17;27.04;26.61
67354;SHT30;54238;52.278;21.056;2024-02-16T11:53:07;26.97;26.60
67354;SHT30;54238;52.278;21.056;2024-02-16T11:55:56;27.06;26.68
67354;SHT30;54238;52.278;21.056;2024-02-16T11:58:48;27.07;26.66
67354;SHT30;54238;52.278;21.056;2024-02-16T12:01:49;27.44;26.93
67354;SHT30;54238;52.278;21.056;2024-02-16T12:04:45;27.74;26.50
67354;SHT30;54238;52.278;21.056;2024-02-16T12:07:43;27.94;26.14
67354;SHT30;54238;52.278;21.056;2024-02-16T12:10:33;27.95;25.79
67354;SHT30;54238;52.278;21.056;2024-02-16T12:13:22;27.88;26.01
67354;SHT30;54238;52.278;21.056;2024-02-16T12:16:13;28.07;26.19
67354;SHT30;54238;52.278;21.056;2024-02-16T12:19:05;28.56;25.49
67354;SHT30;54238;52.278;21.056;2024-02-16T12:21:52;28.80;25.26
67354;SHT30;54238;52.278;21.056;2024-02-16T12:24:45;29.01;24.87
67354;SHT30;54238;52.278;21.056;2024-02-16T12:27:40;29.05;24.96
67354;SHT30;54238;52.278;21.056;2024-02-16T12:30:27;29.09;24.72
67354;SHT30;54238;52.278;21.056;2024-02-16T12:33:16;29.24;24.93
67354;SHT30;54238;52.278;21.056;2024-02-16T12:36:05;29.19;24.45
67354;SHT30;54238;52.278;21.056;2024-02-16T12:38:53;28.78;24.96
67354;SHT30;54238;52.278;21.056;2024-02-16T12:41:42;28.56;25.26
67354;SHT30;54238;52.278;21.056;2024-02-16T12:44:31;28.52;25.34
67354;SHT30;54238;52.278;21.056;2024-02-16T12:47:21;28.43;25.27
67354;SHT30;54238;52.278;21.056;2024-02-16T12:50:08;28.33;25.39
67354;SHT30;54238;52.278;21.056;2024-02-16T12:52:55;28.21;25.42
67354;SHT30;54238;52.278;21.056;2024-02-16T12:55:44;28.01;25.54
67354;SHT30;54238;52.278;21.056;2024-02-16T12:58:38;27.70;25.68
67354;SHT30;54238;52.278;21.056;2024-02-16T13:01:30;27.36;26.00
67354;SHT30;54238;52.278;21.056;2024-02-16T13:04:19;27.10;26.48
67354;SHT30;54238;52.278;21.056;2024-02-16T13:07:09;26.86;26.74
67354;SHT30;54238;52.278;21.056;2024-02-16T13:09:56;26.58;26.97
67354;SHT30;54238;52.278;21.056;2024-02-16T13:12:45;26.27;27.33
67354;SHT30;54238;52.278;21.056;2024-02-16T13:15:34;25.95;27.46
67354;SHT30;54238;52.278;21.056;2024-02-16T13:18:23;25.65;27.93
67354;SHT30;54238;52.278;21.056;2024-02-16T13:21:12;25.46;28.23
67354;SHT30;54238;52.278;21.056;2024-02-16T13:23:59;25.18;28.25
67354;SHT30;54238;52.278;21.056;2024-02-16T13:26:48;24.92;28.70
67354;SHT30;54238;52.278;21.056;2024-02-16T13:29:35;24.77;28.94
67354;SHT30;54238;52.278;21.056;2024-02-16T13:32:22;24.72;29.31
67354;SHT30;54238;52.278;21.056;2024-02-16T13:35:11;24.77;29.62
67354;SHT30;54238;52.278;21.056;2024-02-16T13:38:03;25.00;29.20
67354;SHT30;54238;52.278;21.056;2024-02-16T13:40:50;24.90;29.47
67354;SHT30;54238;52.278;21.056;2024-02-16T13:43:42;25.09;29.73
67354;SHT30;54238;52.278;21.056;2024-02-16T13:46:33;25.25;29.16
67354;SHT30;54238;52.278;21.056;2024-02-16T13:49:20;25.16;28.89
67354;SHT30;54238;52.278;21.056;2024-02-16T13:52:07;25.17;28.96
67354;SHT30;54238;52.278;21.056;2024-02-16T13:54:55;25.20;28.86
67354;SHT30;54238;52.278;21.056;2024-02-16T13:57:44;24.98;29.05
67354;SHT30;54238;52.278;21.056;2024-02-16T14:00:31;24.49;29.34
67354;SHT30;54238;52.278;21.056;2024-02-16T14:03:20;24.03;29.98
67354;SHT30;54238;52.278;21.056;2024-02-16T14:06:07;23.80;30.48
67354;SHT30;54238;52.278;21.056;2024-02-16T14:08:58;23.60;30.70
67354;SHT30;54238;52.278;21.056;2024-02-16T14:11:54;23.15;31.17
67354;SHT30;54238;52.278;21.056;2024-02-16T14:14:44;22.89;31.72
67354;SHT30;54238;52.278;21.056;2024-02-16T14:17:31;22.91;31.82
67354;SHT30;54238;52.278;21.056;2024-02-16T14:20:18;23.03;31.91
67354;SHT30;54238;52.278;21.056;2024-02-16T14:23:08;23.14;31.71
67354;SHT30;54238;52.278;21.056;2024-02-16T14:25:56;23.18;31.45
67354;SHT30;54238;52.278;21.056;2024-02-16T14:28:46;23.04;31.39
67354;SHT30;54238;52.278;21.056;2024-02-16T14:31:35;22.93;31.72
67354;SHT30;54238;52.278;21.056;2024-02-16T14:34:27;22.91;31.80
67354;SHT30;54238;52.278;21.056;2024-02-16T14:37:19;22.95;31.68
67354;SHT30;54238;52.278;21.056;2024-02-16T14:40:09;22.92;31.73
67354;SHT30;54238;52.278;21.056;2024-02-16T14:43:00;22.80;32.03
67354;SHT30;54238;52.278;21.056;2024-02-16T14:45:53;22.70;31.66
67354;SHT30;54238;52.278;21.056;2024-02-16T14:48:43;22.47;31.82
67354;SHT30;54238;52.278;21.056;2024-02-16T14:51:31;22.05;32.15
67354;SHT30;54238;52.278;21.056;2024-02-16T14:54:21;21.62;32.81
67354;SHT30;54238;52.278;21.056;2024-02-16T14:57:16;21.30;33.30
67354;SHT30;54238;52.278;21.056;2024-02-16T15:00:09;20.89;33.86
67354;SHT30;54238;52.278;21.056;2024-02-16T15:02:57;20.57;34.27
67354;SHT30;54238;52.278;21.056;2024-02-16T15:05:49;20.14;34.90
67354;SHT30;54238;52.278;21.056;2024-02-16T15:08:36;19.68;35.70
67354;SHT30;54238;52.278;21.056;2024-02-16T15:11:27;19.40;36.13
67354;SHT30;54238;52.278;21.056;2024-02-16T15:14:16;19.00;36.73
67354;SHT30;54238;52.278;21.056;2024-02-16T15:17:06;18.54;37.43
67354;SHT30;54238;52.278;21.056;2024-02-16T15:19:55;18.12;38.23
67354;SHT30;54238;52.278;21.056;2024-02-16T15:22:42;17.72;39.03
67354;SHT30;54238;52.278;21.056;2024-02-16T15:25:34;17.35;39.88
67354;SHT30;54238;52.278;21.056;2024-02-16T15:28:20;17.00;40.60
67354;SHT30;54238;52.278;21.056;2024-02-16T15:31:10;16.71;41.33
67354;SHT30;54238;52.278;21.056;2024-02-16T15:33:59;16.42;41.99
67354;SHT30;54238;52.278;21.056;2024-02-16T15:36:48;16.09;42.77
67354;SHT30;54238;52.278;21.056;2024-02-16T15:39:41;15.74;43.44
67354;SHT30;54238;52.278;21.056;2024-02-16T15:42:28;15.45;44.00
67354;SHT30;54238;52.278;21.056;2024-02-16T15:45:19;15.15;44.88
67354;SHT30;54238;52.278;21.056;2024-02-16T15:48:09;14.87;45.55
67354;SHT30;54238;52.278;21.056;2024-02-16T15:50:58;14.60;45.97
67354;SHT30;54238;52.278;21.056;2024-02-16T15:53:48;14.39;46.57
67354;SHT30;54238;52.278;21.056;2024-02-16T15:56:39;14.22;47.06
67354;SHT30;54238;52.278;21.056;2024-02-16T15:59:26;14.02;47.64
67354;SHT30;54238;52.278;21.056;2024-02-16T16:02:12;13.85;48.02
67354;SHT30;54238;52.278;21.056;2024-02-16T16:05:01;13.72;48.31
67354;SHT30;54238;52.278;21.056;2024-02-16T16:07:53;13.60;48.83
67354;SHT30;54238;52.278;21.056;2024-02-16T16:10:42;13.48;49.16
67354;SHT30;54238;52.278;21.056;2024-02-16T16:13:32;13.35;49.56
67354;SHT30;54238;52.278;21.056;2024-02-16T16:16:23;13.25;49.84
67354;SHT30;54238;52.278;21.056;2024-02-16T16:19:12;13.16;50.19
67354;SHT30;54238;52.278;21.056;2024-02-16T16:22:06;13.08;50.47
67354;SHT30;54238;52.278;21.056;2024-02-16T16:24:55;13.00;50.69
67354;SHT30;54238;52.278;21.056;2024-02-16T16:27:45;12.94;50.91
67354;SHT30;54238;52.278;21.056;2024-02-16T16:30:35;12.87;51.06
67354;SHT30;54238;52.278;21.056;2024-02-16T16:33:24;12.81;51.43
67354;SHT30;54238;52.278;21.056;2024-02-16T16:36:14;12.75;51.56
67354;SHT30;54238;52.278;21.056;2024-02-16T16:39:00;12.69;51.72
67354;SHT30;54238;52.278;21.056;2024-02-16T16:41:53;12.65;51.81
67354;SHT30;54238;52.278;21.056;2024-02-16T16:44:42;12.60;51.99
67354;SHT30;54238;52.278;21.056;2024-02-16T16:47:34;12.54;52.23
67354;SHT30;54238;52.278;21.056;2024-02-16T16:50:23;12.48;52.40
67354;SHT30;54238;52.278;21.056;2024-02-16T16:53:13;12.44;52.58
67354;SHT30;54238;52.278;21.056;2024-02-16T16:56:02;12.38;52.69
67354;SHT30;54238;52.278;21.056;2024-02-16T16:58:52;12.35;52.82
67354;SHT30;54238;52.278;21.056;2024-02-16T17:01:41;12.30;52.96
67354;SHT30;54238;52.278;21.056;2024-02-16T17:04:33;12.26;53.17
67354;SHT30;54238;52.278;21.056;2024-02-16T17:07:23;12.21;53.35
67354;SHT30;54238;52.278;21.056;2024-02-16T17:10:10;12.18;53.40
67354;SHT30;54238;52.278;21.056;2024-02-16T17:12:59;12.15;53.61
67354;SHT30;54238;52.278;21.056;2024-02-16T17:15:51;12.10;53.76
67354;SHT30;54238;52.278;21.056;2024-02-16T17:18:38;12.05;53.94
67354;SHT30;54238;52.278;21.056;2024-02-16T17:21:32;12.01;54.19
67354;SHT30;54238;52.278;21.056;2024-02-16T17:24:24;11.95;54.26
67354;SHT30;54238;52.278;21.056;2024-02-16T17:27:12;11.92;54.47
67354;SHT30;54238;52.278;21.056;2024-02-16T17:30:01;11.87;54.51
67354;SHT30;54238;52.278;21.056;2024-02-16T17:32:49;11.83;54.77
67354;SHT30;54238;52.278;21.056;2024-02-16T17:35:38;11.80;54.88
67354;SHT30;54238;52.278;21.056;2024-02-16T17:38:28;11.76;55.12
67354;SHT30;54238;52.278;21.056;2024-02-16T17:41:21;11.69;55.39